Terminal Aerodrome Forecast
Issued by NWS Melbourne, FL

Home | Current Version | Previous Version | Text Only | Print | Product List | Glossary On
Versions: 1 2 3 4 5 6 7 8 9 10 11 12 13 14 15 16 17 18 19
000
FTUS42 KMLB 270259 AAB
TAFMLB
TAF AMD
KMLB 270259Z 2703/2724 35012KT P6SM BKN025 OVC050
     FM270800 36009KT P6SM VCSH BKN025 OVC035
     FM271500 01013KT P6SM VCSH OVC025=

USA.gov is the U.S. government's official web portal to all federal, state and local government web resources and services.